Time;durP1;ratioP1;P1;durP2;ratioP2;P2;SDS_P1;SDS_P2;PMS_P1;PMS_P2;Temp;Humidity;BMP_temperature;BMP_pressure;BME280_temperature;BME280_humidity;BME280_pressure;Samples;Min_cycle;Max_cycle;Signal;HPM_P1;HPM_P2
2023/07/16 00:00:27;;;;;;;4.67;4.20;;;;;;;;;;5070542;28;20481;-45
2023/07/16 00:02:55;;;;;;;6.63;4.50;;;;;;;;;;5070989;28;20489;-45
2023/07/16 00:05:22;;;;;;;6.33;4.53;;;25.90;89.80;;;;;;5072384;28;20426;-43
2023/07/16 00:07:49;;;;;;;5.80;4.50;;;25.90;89.80;;;;;;5072345;28;20483;-45
2023/07/16 00:10:16;;;;;;;6.07;3.70;;;;;;;;;;5070627;28;20453;-48
2023/07/16 00:12:42;;;;;;;5.40;4.00;;;25.80;90.20;;;;;;5070777;28;20448;-44
2023/07/16 00:15:10;;;;;;;4.27;3.87;;;;;;;;;;5072438;28;20440;-45
2023/07/16 00:17:38;;;;;;;8.20;4.07;;;;;;;;;;5072441;28;20436;-46
2023/07/16 00:20:06;;;;;;;3.90;3.50;;;;;;;;;;5071836;28;20434;-45
2023/07/16 00:22:33;;;;;;;4.20;3.67;;;;;;;;;;5072141;28;20512;-45
2023/07/16 00:25:00;;;;;;;4.97;3.87;;;;;;;;;;5072021;28;20815;-43
2023/07/16 00:27:27;;;;;;;3.50;2.97;;;;;;;;;;5070379;28;20520;-45
2023/07/16 00:29:54;;;;;;;5.03;3.27;;;;;;;;;;5070021;28;20446;-45
2023/07/16 00:32:21;;;;;;;4.50;3.67;;;25.60;90.10;;;;;;5070739;28;20482;-45
2023/07/16 00:34:49;;;;;;;4.07;3.60;;;25.60;90.20;;;;;;5071034;28;20480;-44
2023/07/16 00:37:16;;;;;;;4.90;3.90;;;;;;;;;;5070642;28;20468;-44
2023/07/16 00:39:42;;;;;;;6.30;3.70;;;25.60;90.20;;;;;;5071248;28;20438;-44
2023/07/16 00:42:09;;;;;;;4.03;3.47;;;;;;;;;;5071898;28;20520;-45
2023/07/16 00:44:36;;;;;;;4.77;3.77;;;;;;;;;;5070443;28;20457;-48
2023/07/16 00:47:04;;;;;;;4.63;4.23;;;;;;;;;;5070900;28;20456;-43
2023/07/16 00:49:31;;;;;;;5.47;3.47;;;;;;;;;;5070999;28;20449;-47
2023/07/16 00:52:00;;;;;;;6.53;3.43;;;;;;;;;;5072585;28;20949;-44
2023/07/16 00:54:28;;;;;;;4.20;3.47;;;;;;;;;;5072472;28;20454;-44
2023/07/16 00:56:55;;;;;;;4.40;3.43;;;;;;;;;;5070963;28;20451;-47
2023/07/16 00:59:22;;;;;;;4.80;3.43;;;;;;;;;;5072303;28;20433;-44
2023/07/16 01:01:49;;;;;;;5.60;3.67;;;;;;;;;;5073362;28;20579;-47
2023/07/16 01:04:16;;;;;;;3.90;3.10;;;;;;;;;;5072534;28;20453;-44
2023/07/16 01:06:45;;;;;;;10.60;3.83;;;;;;;;;;5071769;28;20506;-43
2023/07/16 01:09:17;;;;;;;5.30;3.60;;;25.60;91.00;;;;;;5070679;28;20438;-44
2023/07/16 01:11:44;;;;;;;4.20;3.80;;;25.60;91.00;;;;;;5072210;28;20507;-45
2023/07/16 01:14:11;;;;;;;7.07;4.20;;;;;;;;;;5074246;28;20450;-44
2023/07/16 01:16:38;;;;;;;5.30;3.83;;;;;;;;;;5073964;28;20438;-45
2023/07/16 01:19:06;;;;;;;4.07;3.67;;;;;;;;;;5071751;28;20445;-47
2023/07/16 01:21:39;;;;;;;6.93;3.17;;;25.60;90.90;;;;;;5074459;28;20436;-44
2023/07/16 01:24:46;;;;;;;5.50;3.70;;;25.60;91.40;;;;;;5074021;28;20528;-47
2023/07/16 01:27:25;;;;;;;4.77;4.27;;;;;;;;;;5073921;28;20444;-44
2023/07/16 01:29:55;;;;;;;4.57;3.93;;;;;;;;;;5071520;28;20565;-47
2023/07/16 01:32:24;;;;;;;4.40;4.00;;;;;;;;;;5072106;28;20503;-47
2023/07/16 01:34:53;;;;;;;4.47;3.93;;;25.50;92.30;;;;;;5070766;28;20953;-44
2023/07/16 01:37:20;;;;;;;5.93;4.67;;;25.40;92.60;;;;;;5071881;28;20884;-44
2023/07/16 01:39:47;;;;;;;4.73;4.17;;;;;;;;;;5071731;28;20988;-44
2023/07/16 01:42:14;;;;;;;10.37;4.50;;;;;;;;;;5071865;28;20503;-43
2023/07/16 01:44:40;;;;;;;6.30;4.30;;;25.20;93.10;;;;;;5072377;28;20465;-45
2023/07/16 01:47:12;;;;;;;7.60;4.50;;;25.20;93.00;;;;;;5071762;28;20544;-45
2023/07/16 01:49:39;;;;;;;5.20;4.70;;;;;;;;;;5072873;28;20433;-45
2023/07/16 01:52:07;;;;;;;5.30;4.67;;;25.10;93.30;;;;;;5073810;28;20480;-44
2023/07/16 01:54:34;;;;;;;5.87;4.23;;;;;;;;;;5073954;28;20453;-44
2023/07/16 01:57:00;;;;;;;6.70;4.50;;;25.00;93.70;;;;;;5073405;28;20430;-44
2023/07/16 01:59:27;;;;;;;5.47;4.50;;;25.00;93.70;;;;;;5072553;28;20453;-44
2023/07/16 02:01:56;;;;;;;34.87;5.77;;;;;;;;;;5072172;28;20475;-45
2023/07/16 02:04:24;;;;;;;7.07;4.07;;;24.90;93.90;;;;;;5076875;28;20783;-44
2023/07/16 02:06:51;;;;;;;4.93;4.43;;;24.90;93.80;;;;;;5077029;28;20547;-43
2023/07/16 02:09:20;;;;;;;7.93;4.47;;;;;;;;;;5076418;28;20456;-48
2023/07/16 02:11:47;;;;;;;5.43;4.47;;;24.90;93.70;;;;;;5076796;28;20432;-43
2023/07/16 02:14:15;;;;;;;6.80;4.33;;;;;;;;;;5076715;28;20453;-42
2023/07/16 02:16:43;;;;;;;4.87;3.70;;;;;;;;;;5075542;28;20450;-44
2023/07/16 02:19:09;;;;;;;7.03;3.83;;;24.90;93.60;;;;;;5076874;28;20505;-44
2023/07/16 02:21:37;;;;;;;4.90;3.70;;;24.90;93.40;;;;;;5078050;28;20434;-43
2023/07/16 02:24:04;;;;;;;4.30;3.90;;;;;;;;;;5077403;28;20485;-44
2023/07/16 02:26:31;;;;;;;3.90;3.20;;;24.90;94.50;;;;;;5076228;28;20470;-45
2023/07/16 02:28:59;;;;;;;7.00;3.33;;;24.90;94.60;;;;;;5077545;28;20457;-45
2023/07/16 02:31:25;;;;;;;6.30;3.73;;;24.80;95.00;;;;;;5077365;28;20437;-43
2023/07/16 02:33:52;;;;;;;4.00;3.10;;;24.80;95.70;;;;;;5075215;28;20465;-44
2023/07/16 02:36:19;;;;;;;5.60;3.97;;;;;;;;;;5074855;28;20764;-44
2023/07/16 02:38:47;;;;;;;4.60;4.00;;;;;;;;;;5073979;28;20432;-43
2023/07/16 02:41:14;;;;;;;4.10;2.93;;;24.70;96.80;;;;;;5074552;28;20444;-44
2023/07/16 02:43:40;;;;;;;7.13;3.60;;;24.60;97.20;;;;;;5074283;28;20484;-43
2023/07/16 02:46:07;;;;;;;4.43;3.43;;;;;;;;;;5072820;28;20448;-47
2023/07/16 02:48:34;;;;;;;5.20;3.10;;;24.50;97.90;;;;;;5073822;28;20770;-43
2023/07/16 02:51:02;;;;;;;4.03;3.63;;;24.50;98.20;;;;;;5072447;28;20448;-44
2023/07/16 02:53:29;;;;;;;6.87;3.67;;;;;;;;;;5073905;28;20452;-44
2023/07/16 02:55:57;;;;;;;4.80;3.73;;;24.40;98.80;;;;;;5073056;28;20883;-43
2023/07/16 02:58:24;;;;;;;4.13;3.30;;;24.40;99.30;;;;;;5074276;28;20443;-44
2023/07/16 03:00:51;;;;;;;5.43;3.60;;;;;;;;;;5072781;28;20445;-43
2023/07/16 03:03:18;;;;;;;4.67;4.03;;;24.30;99.80;;;;;;5072703;28;20489;-45
2023/07/16 03:05:45;;;;;;;5.67;3.37;;;24.30;99.90;;;;;;5073974;28;20436;-44
2023/07/16 03:08:12;;;;;;;6.37;4.13;;;;;;;;;;5073772;28;20430;-45
2023/07/16 03:10:38;;;;;;;4.30;3.90;;;24.20;99.90;;;;;;5073955;28;20508;-45
2023/07/16 03:13:06;;;;;;;5.50;4.30;;;24.10;99.90;;;;;;5073781;28;20461;-45
2023/07/16 03:15:33;;;;;;;7.20;3.90;;;;;;;;;;5072876;28;20475;-44
2023/07/16 03:18:02;;;;;;;4.43;3.63;;;;;;;;;;5072456;28;20457;-45
2023/07/16 03:20:28;;;;;;;3.27;2.97;;;24.00;99.90;;;;;;5072111;28;20453;-47
2023/07/16 03:22:55;;;;;;;5.00;3.93;;;24.00;99.90;;;;;;5072094;28;20487;-48
2023/07/16 03:25:22;;;;;;;4.47;3.93;;;;;;;;;;5072214;28;20543;-47
2023/07/16 03:27:49;;;;;;;4.00;3.60;;;;;;;;;;5073348;28;20440;-48
2023/07/16 03:30:18;;;;;;;4.47;3.70;;;;;;;;;;5071726;28;20544;-48
2023/07/16 03:32:45;;;;;;;6.33;3.30;;;24.00;99.90;;;;;;5071763;28;20449;-49
2023/07/16 03:35:12;;;;;;;5.60;3.97;;;;;;;;;;5073326;28;20429;-48
2023/07/16 03:37:39;;;;;;;4.03;3.63;;;23.90;99.90;;;;;;5071988;28;20453;-47
2023/07/16 03:40:15;;;;;;;4.53;4.13;;;;;;;;;;5071558;28;20824;-47
2023/07/16 03:42:44;;;;;;;6.60;4.33;;;23.90;99.90;;;;;;5071779;28;20472;-47
2023/07/16 03:45:11;;;;;;;4.10;3.70;;;23.80;99.90;;;;;;5073026;28;20430;-47
2023/07/16 03:47:39;;;;;;;5.27;3.97;;;23.80;99.90;;;;;;5071641;28;20991;-47
2023/07/16 03:50:07;;;;;;;5.20;4.40;;;;;;;;;;5071381;28;20540;-47
2023/07/16 03:52:33;;;;;;;5.17;3.37;;;23.70;99.90;;;;;;5072995;28;20425;-47
2023/07/16 03:55:00;;;;;;;4.30;3.43;;;23.70;99.90;;;;;;5071602;28;20441;-46
2023/07/16 03:57:29;;;;;;;3.40;3.10;;;;;;;;;;5073141;28;20434;-48
2023/07/16 03:59:56;;;;;;;5.90;3.83;;;23.70;99.90;;;;;;5071059;28;20437;-48
2023/07/16 04:02:23;;;;;;;12.70;3.60;;;;;;;;;;5071585;28;20461;-48
2023/07/16 04:04:51;;;;;;;3.60;3.00;;;;;;;;;;5072776;28;20980;-48
2023/07/16 04:07:18;;;;;;;4.53;3.10;;;23.70;99.90;;;;;;5071488;28;20453;-47
2023/07/16 04:09:45;;;;;;;4.10;3.00;;;;;;;;;;5072276;28;20441;-48
2023/07/16 04:12:12;;;;;;;3.40;2.70;;;23.70;99.90;;;;;;5072817;28;20441;-47
2023/07/16 04:14:38;;;;;;;3.20;2.87;;;23.70;99.90;;;;;;5072836;28;20453;-47
2023/07/16 04:17:06;;;;;;;3.07;2.77;;;;;;;;;;5072416;28;20460;-48
2023/07/16 04:19:33;;;;;;;3.23;2.63;;;;;;;;;;5071840;28;20436;-48
2023/07/16 04:22:02;;;;;;;3.90;2.93;;;;;;;;;;5072363;28;20449;-47
2023/07/16 04:24:28;;;;;;;4.10;2.87;;;23.70;99.90;;;;;;5072053;28;20484;-48
2023/07/16 04:26:55;;;;;;;3.17;2.87;;;;;;;;;;5072065;28;20441;-48
2023/07/16 04:29:22;;;;;;;3.67;3.20;;;23.70;99.90;;;;;;5070578;28;20971;-47
2023/07/16 04:31:49;;;;;;;3.23;2.77;;;23.70;99.90;;;;;;5072318;28;20429;-47
2023/07/16 04:34:16;;;;;;;3.97;2.73;;;;;;;;;;5072125;28;20487;-48
2023/07/16 04:36:43;;;;;;;4.00;2.47;;;;;;;;;;5072272;28;20437;-48
2023/07/16 04:39:12;;;;;;;3.53;3.07;;;;;;;;;;5071889;28;20443;-48
2023/07/16 04:41:38;;;;;;;3.93;2.87;;;23.60;99.90;;;;;;5072178;28;20437;-47
2023/07/16 04:44:06;;;;;;;4.60;3.53;;;;;;;;;;5072148;28;20495;-47
2023/07/16 04:46:33;;;;;;;3.70;3.10;;;;;;;;;;5072214;28;20441;-47
2023/07/16 04:49:00;;;;;;;3.80;3.27;;;;;;;;;;5072134;28;20480;-47
2023/07/16 04:51:27;;;;;;;4.23;2.70;;;23.50;99.90;;;;;;5072171;28;20929;-46
2023/07/16 04:53:54;;;;;;;6.03;2.87;;;;;;;;;;5072469;28;20832;-47
2023/07/16 04:56:22;;;;;;;3.33;3.00;;;;;;;;;;5072165;28;20454;-47
2023/07/16 04:58:49;;;;;;;5.40;3.47;;;23.50;99.90;;;;;;5072058;28;20488;-47
2023/07/16 05:01:15;;;;;;;3.43;3.13;;;23.40;99.90;;;;;;5072482;28;20443;-47
2023/07/16 05:03:42;;;;;;;4.57;3.50;;;;;;;;;;5072062;28;20487;-47
2023/07/16 05:06:09;;;;;;;3.50;3.10;;;23.40;99.90;;;;;;5072278;28;20585;-47
2023/07/16 05:08:36;;;;;;;5.33;3.30;;;;;;;;;;5071651;28;20440;-47
2023/07/16 05:11:03;;;;;;;3.70;3.07;;;23.50;99.90;;;;;;5072055;28;20428;-47
2023/07/16 05:13:31;;;;;;;5.30;3.60;;;23.50;99.90;;;;;;5071968;28;20969;-47
2023/07/16 05:15:58;;;;;;;4.97;3.87;;;23.50;99.90;;;;;;5071859;28;20435;-48
2023/07/16 05:18:25;;;;;;;4.50;3.43;;;;;;;;;;5072059;28;20437;-47
2023/07/16 05:20:51;;;;;;;3.80;3.33;;;23.60;99.90;;;;;;5071726;28;20944;-47
2023/07/16 05:23:18;;;;;;;3.70;3.23;;;23.60;99.90;;;;;;5071587;28;20476;-46
2023/07/16 05:25:48;;;;;;;5.40;3.03;;;;;;;;;;5071701;28;20443;-47
2023/07/16 05:28:15;;;;;;;3.93;3.20;;;;;;;;;;5071405;28;20913;-48
2023/07/16 05:30:43;;;;;;;4.33;3.30;;;;;;;;;;5071802;28;20433;-46
2023/07/16 05:33:10;;;;;;;5.03;3.40;;;;;;;;;;5071339;28;20997;-47
2023/07/16 05:35:37;;;;;;;3.40;2.93;;;;;;;;;;5071566;28;20435;-47
2023/07/16 05:38:04;;;;;;;4.53;3.40;;;;;;;;;;5072111;28;20441;-47
2023/07/16 05:40:31;;;;;;;4.33;3.53;;;;;;;;;;5075398;28;20763;-47
2023/07/16 05:42:58;;;;;;;5.60;3.00;;;24.70;99.90;;;;;;5075245;28;20957;-47
2023/07/16 05:45:24;;;;;;;6.30;3.30;;;24.80;99.90;;;;;;5075440;28;20428;-48
2023/07/16 05:47:52;;;;;;;6.63;3.80;;;24.80;99.90;;;;;;5075373;28;20439;-47
2023/07/16 05:50:19;;;;;;;4.60;2.93;;;24.80;99.90;;;;;;5075052;28;20452;-48
2023/07/16 05:52:48;;;;;;;4.40;3.17;;;;;;;;;;5073794;28;20478;-47
2023/07/16 05:55:14;;;;;;;6.47;3.80;;;24.70;99.90;;;;;;5075274;28;20541;-48
2023/07/16 05:57:41;;;;;;;8.00;3.97;;;;;;;;;;5075431;28;20430;-47
2023/07/16 06:00:09;;;;;;;4.30;3.67;;;;;;;;;;5074934;28;20442;-46
2023/07/16 06:02:38;;;;;;;5.70;3.50;;;24.90;99.90;;;;;;5074947;28;20848;-47
2023/07/16 06:05:07;;;;;;;5.20;3.80;;;;;;;;;;5075388;28;20488;-47
2023/07/16 06:07:34;;;;;;;10.00;3.30;;;;;;;;;;5074920;28;20441;-49
2023/07/16 06:10:01;;;;;;;5.07;3.90;;;25.20;99.90;;;;;;5074510;28;20442;-49
2023/07/16 06:12:28;;;;;;;7.03;4.93;;;;;;;;;;5074851;28;20433;-48
2023/07/16 06:14:54;;;;;;;4.90;3.80;;;25.40;99.90;;;;;;5074926;28;20949;-47
2023/07/16 06:17:21;;;;;;;3.47;3.10;;;25.50;99.90;;;;;;5074737;28;20434;-48
2023/07/16 06:19:50;;;;;;;5.50;3.53;;;;;;;;;;5074408;28;20533;-47
2023/07/16 06:22:18;;;;;;;4.20;3.53;;;25.60;99.90;;;;;;5074708;28;20445;-48
2023/07/16 06:24:45;;;;;;;3.90;3.60;;;25.70;99.90;;;;;;5074527;28;20481;-47
2023/07/16 06:27:11;;;;;;;5.33;3.27;;;25.80;99.90;;;;;;5074589;28;20438;-47
2023/07/16 06:29:38;;;;;;;3.90;3.50;;;;;;;;;;5074299;28;20523;-47
2023/07/16 06:32:06;;;;;;;4.33;3.57;;;26.00;99.90;;;;;;5074392;28;20441;-49
2023/07/16 06:34:33;;;;;;;5.93;3.60;;;26.00;99.90;;;;;;5074734;28;20461;-47
2023/07/16 06:37:00;;;;;;;3.23;2.93;;;;;;;;;;5074467;28;20434;-48
2023/07/16 06:39:28;;;;;;;4.03;3.63;;;26.00;99.90;;;;;;5074078;28;20811;-48
2023/07/16 06:41:55;;;;;;;4.80;3.93;;;;;;;;;;5074362;28;20457;-48
2023/07/16 06:44:23;;;;;;;3.40;3.10;;;;;;;;;;5073042;28;20470;-48
2023/07/16 06:46:50;;;;;;;4.30;3.50;;;;;;;;;;5074274;28;20987;-47
2023/07/16 06:49:17;;;;;;;4.37;3.70;;;;;;;;;;5073966;28;20429;-48
2023/07/16 06:51:44;;;;;;;4.30;3.40;;;26.40;99.90;;;;;;5074418;28;20804;-47
2023/07/16 06:54:11;;;;;;;4.43;2.70;;;;;;;;;;5074189;28;20457;-48
2023/07/16 06:56:39;;;;;;;3.60;3.30;;;;;;;;;;5074181;28;20429;-48
2023/07/16 06:59:06;;;;;;;4.07;3.27;;;26.50;99.30;;;;;;5073666;28;20445;-47
2023/07/16 07:01:32;;;;;;;4.17;3.37;;;26.60;99.20;;;;;;5074147;28;20432;-48
2023/07/16 07:03:59;;;;;;;4.47;3.23;;;;;;;;;;5072461;28;20474;-48
2023/07/16 07:06:26;;;;;;;4.93;3.07;;;26.90;98.70;;;;;;5074495;28;20442;-47
2023/07/16 07:08:53;;;;;;;5.23;2.80;;;;;;;;;;5073646;28;20458;-47
2023/07/16 07:11:20;;;;;;;3.90;2.90;;;27.00;98.10;;;;;;5072460;28;20473;-49
2023/07/16 07:13:48;;;;;;;6.63;3.40;;;27.10;97.90;;;;;;5073713;28;20446;-48
2023/07/16 07:16:14;;;;;;;4.50;2.90;;;;;;;;;;5073752;28;20525;-47
2023/07/16 07:18:41;;;;;;;3.43;2.80;;;;;;;;;;5073277;28;20922;-47
2023/07/16 07:21:08;;;;;;;6.40;3.20;;;27.40;97.20;;;;;;5073866;28;20801;-47
2023/07/16 07:23:35;;;;;;;5.17;3.30;;;27.40;96.90;;;;;;5074104;28;20457;-48
2023/07/16 07:26:02;;;;;;;8.13;3.37;;;;;;;;;;5074503;28;20949;-48
2023/07/16 07:28:29;;;;;;;3.67;3.17;;;;;;;;;;5073570;28;20433;-48
2023/07/16 07:30:57;;;;;;;6.13;3.07;;;27.30;96.40;;;;;;5072534;28;20453;-48
2023/07/16 07:33:24;;;;;;;3.70;3.40;;;;;;;;;;5073521;28;20466;-47
2023/07/16 07:35:54;;;;;;;6.20;4.60;;;;;;;;;;5073520;28;20929;-46
2023/07/16 07:38:21;;;;;;;4.20;3.80;;;27.30;96.10;;;;;;5073884;28;20438;-47
2023/07/16 07:40:48;;;;;;;4.63;3.40;;;;;;;;;;5073576;28;20481;-47
2023/07/16 07:43:15;;;;;;;5.50;3.80;;;;;;;;;;5073015;28;20460;-48
2023/07/16 07:45:42;;;;;;;3.33;3.03;;;;;;;;;;5072129;28;20846;-47
2023/07/16 07:48:10;;;;;;;6.43;2.93;;;;;;;;;;5073244;28;20434;-47
2023/07/16 07:50:36;;;;;;;7.50;3.00;;;27.80;95.20;;;;;;5073673;28;20429;-47
2023/07/16 07:53:03;;;;;;;3.53;2.90;;;27.80;94.70;;;;;;5073632;28;20455;-48
2023/07/16 07:55:30;;;;;;;4.17;3.23;;;;;;;;;;5072990;28;20545;-48
2023/07/16 07:57:57;;;;;;;5.50;3.17;;;27.70;94.10;;;;;;5072728;28;20447;-49
2023/07/16 08:00:23;;;;;;;4.43;3.20;;;27.60;94.10;;;;;;5071876;28;20430;-47
2023/07/16 08:02:50;;;;;;;3.03;2.70;;;;;;;;;;5070726;28;20468;-47
2023/07/16 08:05:19;;;;;;;2.93;2.40;;;;;;;;;;5072164;28;20835;-47
2023/07/16 08:07:46;;;;;;;3.47;2.50;;;;;;;;;;5072541;28;20436;-48
2023/07/16 08:10:13;;;;;;;3.50;2.30;;;;;;;;;;5072285;28;20463;-48
2023/07/16 08:12:40;;;;;;;3.33;2.70;;;;;;;;;;5072760;28;20802;-48
2023/07/16 08:15:09;;;;;;;4.27;2.53;;;;;;;;;;5072506;28;20517;-48
2023/07/16 08:17:36;;;;;;;3.57;2.40;;;;;;;;;;5072389;28;20438;-48
2023/07/16 08:20:03;;;;;;;4.53;2.93;;;;;;;;;;5072209;28;20793;-47
2023/07/16 08:22:32;;;;;;;3.60;2.50;;;;;;;;;;5072404;28;20457;-48
2023/07/16 08:24:59;;;;;;;2.80;2.27;;;;;;;;;;5072275;28;20497;-47
2023/07/16 08:27:25;;;;;;;4.77;2.50;;;27.40;90.80;;;;;;5072208;28;20433;-48
2023/07/16 08:29:52;;;;;;;3.27;2.70;;;;;;;;;;5071936;28;20429;-47
2023/07/16 08:32:19;;;;;;;4.30;2.57;;;27.20;90.40;;;;;;5072027;28;20937;-47
2023/07/16 08:34:46;;;;;;;3.03;2.30;;;;;;;;;;5071849;28;20993;-48
2023/07/16 08:37:13;;;;;;;5.30;3.00;;;;;;;;;;5071991;28;20442;-48
2023/07/16 08:39:42;;;;;;;3.23;2.27;;;;;;;;;;5070577;28;20553;-47
2023/07/16 08:42:10;;;;;;;5.20;2.37;;;;;;;;;;5072141;28;20802;-48
2023/07/16 08:44:37;;;;;;;3.37;2.30;;;;;;;;;;5071746;28;20497;-48
2023/07/16 08:47:05;;;;;;;3.40;3.07;;;27.10;88.60;;;;;;5072200;28;20429;-48
2023/07/16 08:49:32;;;;;;;3.23;2.50;;;;;;;;;;5070199;28;20454;-48
2023/07/16 08:51:59;;;;;;;5.20;2.10;;;;;;;;;;5071785;28;20460;-46
2023/07/16 08:54:26;;;;;;;4.27;1.90;;;;;;;;;;5071875;28;20451;-48
2023/07/16 08:56:54;;;;;;;2.80;2.20;;;;;;;;;;5072125;28;20426;-49
2023/07/16 08:59:22;;;;;;;3.90;2.73;;;;;;;;;;5071816;28;20453;-49
2023/07/16 09:01:49;;;;;;;3.97;2.40;;;;;;;;;;5072386;28;20422;-46
2023/07/16 09:04:16;;;;;;;3.47;2.57;;;;;;;;;;5072434;28;20964;-47
2023/07/16 09:06:43;;;;;;;3.17;2.50;;;;;;;;;;5072072;28;20430;-48
2023/07/16 09:09:14;;;;;;;5.73;2.67;;;;;;;;;;5071906;28;20442;-48
2023/07/16 09:11:47;;;;;;;3.73;2.30;;;27.40;84.70;;;;;;5072271;28;20433;-48
2023/07/16 09:14:17;;;;;;;3.43;2.57;;;27.40;82.80;;;;;;5073989;28;20465;-48
2023/07/16 09:16:44;;;;;;;3.53;2.13;;;;;;;;;;5076494;28;20440;-46
2023/07/16 09:19:13;;;;;;;3.50;2.50;;;27.50;81.20;;;;;;5076128;28;20926;-47
2023/07/16 09:21:40;;;;;;;3.70;2.20;;;;;;;;;;5075936;28;20443;-47
2023/07/16 09:24:08;;;;;;;3.90;2.80;;;;;;;;;;5076121;28;20463;-47
2023/07/16 09:26:38;;;;;;;3.47;2.33;;;;;;;;;;5076048;28;20444;-47
2023/07/16 09:29:07;;;;;;;3.43;1.93;;;;;;;;;;5075657;28;20555;-48
2023/07/16 09:31:35;;;;;;;6.37;2.47;;;27.60;80.80;;;;;;5076108;28;20445;-48
2023/07/16 09:34:02;;;;;;;3.50;2.07;;;;;;;;;;5075616;28;20465;-47
2023/07/16 09:36:29;;;;;;;3.60;2.37;;;27.70;79.10;;;;;;5075537;28;20856;-48
2023/07/16 09:38:58;;;;;;;4.00;2.33;;;27.60;78.70;;;;;;5075282;28;20952;-48
2023/07/16 09:41:25;;;;;;;6.93;2.47;;;;;;;;;;5075630;28;20952;-47
2023/07/16 09:43:52;;;;;;;3.00;2.00;;;;;;;;;;5075301;28;20466;-48
2023/07/16 09:46:19;;;;;;;2.80;2.30;;;;;;;;;;5075171;28;20504;-48
2023/07/16 09:48:47;;;;;;;3.70;2.40;;;;;;;;;;5075068;28;20433;-48
2023/07/16 09:51:15;;;;;;;2.83;2.20;;;;;;;;;;5075390;28;20452;-47
2023/07/16 09:53:43;;;;;;;3.90;2.50;;;;;;;;;;5075284;28;20485;-47
2023/07/16 09:56:13;;;;;;;2.77;2.20;;;;;;;;;;5075092;28;20430;-47
2023/07/16 09:58:40;;;;;;;4.43;2.50;;;;;;;;;;5074815;28;20430;-47
2023/07/16 10:01:08;;;;;;;6.60;2.57;;;27.70;76.00;;;;;;5075321;28;20440;-47
2023/07/16 10:03:35;;;;;;;4.77;2.40;;;;;;;;;;5074967;28;20454;-48
2023/07/16 10:06:10;;;;;;;3.57;2.17;;;;;;;;;;5075371;28;20509;-48
2023/07/16 10:08:36;;;;;;;4.30;2.10;;;27.90;75.40;;;;;;5074850;28;20433;-48
2023/07/16 10:11:03;;;;;;;2.80;1.90;;;;;;;;;;5075664;28;20450;-46
2023/07/16 10:13:30;;;;;;;4.63;2.13;;;27.90;73.90;;;;;;5075618;28;20453;-47
2023/07/16 10:15:57;;;;;;;4.83;2.60;;;;;;;;;;5075890;28;20426;-47
2023/07/16 10:18:31;;;;;;;4.87;2.30;;;;;;;;;;5075256;28;20433;-48
2023/07/16 10:21:02;;;;;;;3.47;2.50;;;;;;;;;;5075380;28;20468;-46
2023/07/16 10:23:37;;;;;;;3.80;2.40;;;;;;;;;;5075475;28;20751;-47
2023/07/16 10:26:06;;;;;;;3.97;2.00;;;;;;;;;;5075829;28;20548;-47
2023/07/16 10:28:32;;;;;;;4.13;1.80;;;28.10;72.20;;;;;;5075170;28;20426;-47
2023/07/16 10:31:00;;;;;;;5.03;2.10;;;;;;;;;;5074863;28;20942;-47
2023/07/16 10:33:26;;;;;;;2.50;2.00;;;28.00;72.70;;;;;;5074563;28;20982;-48
2023/07/16 10:35:53;;;;;;;3.13;2.27;;;28.10;73.10;;;;;;5074629;28;20433;-47
2023/07/16 10:38:20;;;;;;;5.10;2.40;;;;;;;;;;5074149;28;20771;-47
2023/07/16 10:40:48;;;;;;;4.03;2.70;;;;;;;;;;5074405;28;20429;-48
2023/07/16 10:43:16;;;;;;;5.97;2.37;;;;;;;;;;5074079;28;20474;-48
2023/07/16 10:45:42;;;;;;;3.60;2.37;;;28.20;72.20;;;;;;5074300;28;20480;-48
2023/07/16 10:48:09;;;;;;;4.47;2.40;;;;;;;;;;5073897;28;20433;-46
2023/07/16 10:50:38;;;;;;;5.10;3.50;;;;;;;;;;5073982;28;20448;-48
2023/07/16 10:53:05;;;;;;;3.80;2.40;;;;;;;;;;5073895;28;20453;-48
2023/07/16 10:55:37;;;;;;;3.57;2.13;;;28.40;71.80;;;;;;5073893;28;20446;-50
2023/07/16 10:58:07;;;;;;;3.90;2.53;;;;;;;;;;5073974;28;20426;-48
2023/07/16 11:00:37;;;;;;;4.33;3.07;;;;;;;;;;5073957;28;20442;-47
2023/07/16 11:03:04;;;;;;;5.70;2.87;;;;;;;;;;5073963;28;20814;-47
2023/07/16 11:05:31;;;;;;;3.97;2.50;;;28.60;71.20;;;;;;5073609;28;20927;-49
2023/07/16 11:07:58;;;;;;;6.57;2.67;;;28.60;70.50;;;;;;5073508;28;20482;-47
2023/07/16 11:10:25;;;;;;;4.17;2.40;;;;;;;;;;5073603;28;20455;-48
2023/07/16 11:12:53;;;;;;;4.87;2.43;;;;;;;;;;5073677;28;20457;-48
2023/07/16 11:15:31;;;;;;;5.20;2.37;;;;;;;;;;5073464;28;20774;-48
2023/07/16 11:17:58;;;;;;;4.33;2.40;;;28.70;70.40;;;;;;5073673;28;20445;-48
2023/07/16 11:20:25;;;;;;;4.23;2.87;;;;;;;;;;5073304;28;20449;-49
2023/07/16 11:22:52;;;;;;;6.83;2.30;;;28.80;69.20;;;;;;5073613;28;20457;-47
2023/07/16 11:25:19;;;;;;;5.33;2.80;;;;;;;;;;5071948;28;20884;-50
2023/07/16 11:27:47;;;;;;;5.57;3.37;;;;;;;;;;5073116;28;20895;-47
2023/07/16 11:30:14;;;;;;;5.13;2.97;;;;;;;;;;5073133;28;20441;-48
2023/07/16 11:32:48;;;;;;;3.73;2.70;;;28.80;69.10;;;;;;5073133;28;20426;-48
2023/07/16 11:35:17;;;;;;;3.90;2.60;;;;;;;;;;5071490;28;20445;-48
2023/07/16 11:37:44;;;;;;;4.47;2.33;;;;;;;;;;5073056;28;20429;-47
2023/07/16 11:40:12;;;;;;;4.03;3.03;;;;;;;;;;5072903;28;20520;-48
2023/07/16 11:42:40;;;;;;;3.53;2.83;;;;;;;;;;5072916;28;20445;-49
2023/07/16 11:45:16;;;;;;;3.53;2.63;;;;;;;;;;5072768;28;20473;-48
2023/07/16 11:47:44;;;;;;;3.60;2.87;;;;;;;;;;5073202;28;20433;-48
2023/07/16 11:50:11;;;;;;;3.93;2.57;;;;;;;;;;5072617;28;20437;-48
2023/07/16 11:52:39;;;;;;;5.27;3.00;;;;;;;;;;5072379;28;20426;-49
2023/07/16 11:55:07;;;;;;;4.40;2.43;;;;;;;;;;5072679;28;20430;-48
2023/07/16 11:57:34;;;;;;;3.83;2.33;;;;;;;;;;5073150;28;20433;-49
2023/07/16 12:00:01;;;;;;;3.47;2.60;;;;;;;;;;5072238;28;20456;-48
2023/07/16 12:02:29;;;;;;;3.37;2.60;;;;;;;;;;5072385;28;20525;-48
2023/07/16 12:04:57;;;;;;;5.83;2.20;;;;;;;;;;5072641;28;20441;-48
2023/07/16 12:07:32;;;;;;;4.80;2.40;;;;;;;;;;5072610;28;20438;-48
2023/07/16 12:09:59;;;;;;;4.73;2.30;;;;;;;;;;5072507;28;20441;-48
2023/07/16 12:12:25;;;;;;;4.43;2.53;;;29.10;61.50;;;;;;5072488;28;20941;-47
2023/07/16 12:14:53;;;;;;;4.47;2.50;;;;;;;;;;5072548;28;20449;-49
2023/07/16 12:17:19;;;;;;;6.97;2.53;;;29.20;59.10;;;;;;5072770;28;20902;-49
2023/07/16 12:19:46;;;;;;;6.13;2.67;;;;;;;;;;5071692;28;20426;-48
2023/07/16 12:22:15;;;;;;;3.77;2.40;;;;;;;;;;5072151;28;20956;-48
2023/07/16 12:24:42;;;;;;;6.00;2.93;;;29.50;55.40;;;;;;5072369;28;20471;-48
2023/07/16 12:27:09;;;;;;;3.60;2.33;;;29.60;54.90;;;;;;5072243;28;20492;-48
2023/07/16 12:29:36;;;;;;;5.33;2.70;;;;;;;;;;5071851;28;20441;-47
2023/07/16 12:32:03;;;;;;;4.30;2.70;;;;;;;;;;5071922;28;20441;-48
2023/07/16 12:34:30;;;;;;;3.77;2.80;;;;;;;;;;5072881;28;20462;-48
2023/07/16 12:36:57;;;;;;;3.23;2.63;;;;;;;;;;5072042;28;20434;-48
2023/07/16 12:39:26;;;;;;;3.93;2.80;;;;;;;;;;5071830;28;20961;-48
2023/07/16 12:41:53;;;;;;;4.40;2.40;;;;;;;;;;5071961;28;20442;-48
2023/07/16 12:44:20;;;;;;;3.60;2.40;;;;;;;;;;5072023;28;20454;-48
2023/07/16 12:46:47;;;;;;;3.97;2.33;;;;;;;;;;5071755;28;20540;-47
2023/07/16 12:49:14;;;;;;;4.97;2.37;;;;;;;;;;5071337;28;20938;-48
2023/07/16 12:51:41;;;;;;;4.50;2.33;;;;;;;;;;5072087;28;20448;-48
2023/07/16 12:54:08;;;;;;;5.90;2.90;;;;;;;;;;5071921;28;20456;-49
2023/07/16 12:56:36;;;;;;;4.00;2.20;;;29.30;50.70;;;;;;5071857;28;21217;-48
2023/07/16 12:59:03;;;;;;;4.47;2.57;;;;;;;;;;5071490;28;20425;-49
2023/07/16 13:01:30;;;;;;;4.10;2.00;;;;;;;;;;5071934;28;20449;-48
2023/07/16 13:03:57;;;;;;;3.70;2.30;;;;;;;;;;5070379;28;20488;-49
2023/07/16 13:06:24;;;;;;;6.20;2.50;;;;;;;;;;5072107;28;20484;-48
2023/07/16 13:08:51;;;;;;;3.23;2.23;;;;;;;;;;5071573;28;21041;-48
2023/07/16 13:11:18;;;;;;;7.03;3.10;;;;;;;;;;5071219;28;20441;-48
2023/07/16 13:13:47;;;;;;;4.77;3.40;;;;;;;;;;5071368;28;20544;-47
2023/07/16 13:16:14;;;;;;;5.60;2.47;;;;;;;;;;5071569;28;20437;-48
2023/07/16 13:18:40;;;;;;;5.60;2.33;;;29.20;50.60;;;;;;5071290;28;20529;-47
2023/07/16 13:21:07;;;;;;;4.10;3.00;;;;;;;;;;5071617;28;20441;-48
2023/07/16 13:23:35;;;;;;;4.73;2.87;;;29.50;51.00;;;;;;5071367;28;20984;-48
2023/07/16 13:26:02;;;;;;;6.63;2.70;;;;;;;;;;5071284;28;20469;-48
2023/07/16 13:28:29;;;;;;;6.90;2.17;;;;;;;;;;5071271;28;20459;-47
2023/07/16 13:30:58;;;;;;;4.10;2.87;;;;;;;;;;5071879;28;20450;-48
2023/07/16 13:33:24;;;;;;;5.27;2.83;;;29.70;50.60;;;;;;5071429;28;20457;-47
2023/07/16 13:35:51;;;;;;;6.40;2.70;;;;;;;;;;5071630;28;20430;-47
2023/07/16 13:38:18;;;;;;;3.00;2.20;;;;;;;;;;5070041;28;20445;-46
2023/07/16 13:40:45;;;;;;;5.53;2.40;;;29.60;50.70;;;;;;5071629;28;20438;-46
2023/07/16 13:43:12;;;;;;;3.70;2.10;;;;;;;;;;5071620;28;20461;-48
2023/07/16 13:45:39;;;;;;;4.83;2.50;;;;;;;;;;5072042;28;20485;-48
2023/07/16 13:48:08;;;;;;;5.07;2.90;;;29.70;50.70;;;;;;5071646;28;20441;-48
2023/07/16 13:50:35;;;;;;;4.43;2.67;;;;;;;;;;5071747;28;20430;-47
2023/07/16 13:53:03;;;;;;;4.30;2.20;;;;;;;;;;5072004;28;20540;-48
2023/07/16 13:55:30;;;;;;;3.87;2.17;;;;;;;;;;5071758;28;20467;-48
2023/07/16 13:57:57;;;;;;;5.43;1.97;;;;;;;;;;5071397;28;20449;-48